sensor_id;sensor_type;location;lat;lon;timestamp;P1;durP1;ratioP1;P2;durP2;ratioP2
67130;SDS011;54051;53.464;49.532;2023-04-15T00:01:47;4.60;;;1.23;;
67130;SDS011;54051;53.464;49.532;2023-04-15T00:04:14;4.45;;;1.50;;
67130;SDS011;54051;53.464;49.532;2023-04-15T00:06:40;5.57;;;1.40;;
67130;SDS011;54051;53.464;49.532;2023-04-15T00:09:06;4.22;;;1.27;;
67130;SDS011;54051;53.464;49.532;2023-04-15T00:11:32;3.85;;;1.40;;
67130;SDS011;54051;53.464;49.532;2023-04-15T00:13:58;3.85;;;1.40;;
67130;SDS011;54051;53.464;49.532;2023-04-15T00:16:25;4.33;;;1.50;;
67130;SDS011;54051;53.464;49.532;2023-04-15T00:18:51;3.45;;;1.15;;
67130;SDS011;54051;53.464;49.532;2023-04-15T00:21:17;4.80;;;1.30;;
67130;SDS011;54051;53.464;49.532;2023-04-15T00:23:43;4.32;;;1.40;;
67130;SDS011;54051;53.464;49.532;2023-04-15T00:26:10;6.88;;;1.40;;
67130;SDS011;54051;53.464;49.532;2023-04-15T00:28:37;5.28;;;1.30;;
67130;SDS011;54051;53.464;49.532;2023-04-15T00:31:03;4.45;;;1.40;;
67130;SDS011;54051;53.464;49.532;2023-04-15T00:33:30;5.10;;;1.42;;
67130;SDS011;54051;53.464;49.532;2023-04-15T00:35:56;4.50;;;1.42;;
67130;SDS011;54051;53.464;49.532;2023-04-15T00:38:22;4.35;;;1.50;;
67130;SDS011;54051;53.464;49.532;2023-04-15T00:40:48;4.18;;;1.35;;
67130;SDS011;54051;53.464;49.532;2023-04-15T00:43:14;4.50;;;1.42;;
67130;SDS011;54051;53.464;49.532;2023-04-15T00:45:41;5.20;;;1.40;;
67130;SDS011;54051;53.464;49.532;2023-04-15T00:48:07;4.80;;;1.25;;
67130;SDS011;54051;53.464;49.532;2023-04-15T00:50:34;5.55;;;1.38;;
67130;SDS011;54051;53.464;49.532;2023-04-15T00:53:00;6.28;;;1.23;;
67130;SDS011;54051;53.464;49.532;2023-04-15T00:55:27;4.35;;;1.40;;
67130;SDS011;54051;53.464;49.532;2023-04-15T00:57:53;5.05;;;1.38;;
67130;SDS011;54051;53.464;49.532;2023-04-15T01:00:19;5.50;;;1.40;;
67130;SDS011;54051;53.464;49.532;2023-04-15T01:02:46;5.18;;;1.30;;
67130;SDS011;54051;53.464;49.532;2023-04-15T01:05:12;3.78;;;1.23;;
67130;SDS011;54051;53.464;49.532;2023-04-15T01:07:41;4.10;;;1.27;;
67130;SDS011;54051;53.464;49.532;2023-04-15T01:10:08;3.63;;;1.30;;
67130;SDS011;54051;53.464;49.532;2023-04-15T01:12:34;5.28;;;1.60;;
67130;SDS011;54051;53.464;49.532;2023-04-15T01:15:02;4.05;;;1.38;;
67130;SDS011;54051;53.464;49.532;2023-04-15T01:17:28;4.38;;;1.38;;
67130;SDS011;54051;53.464;49.532;2023-04-15T01:19:55;4.88;;;1.50;;
67130;SDS011;54051;53.464;49.532;2023-04-15T01:22:24;5.60;;;1.38;;
67130;SDS011;54051;53.464;49.532;2023-04-15T01:24:56;3.97;;;1.40;;
67130;SDS011;54051;53.464;49.532;2023-04-15T01:27:45;5.78;;;1.25;;
67130;SDS011;54051;53.464;49.532;2023-04-15T01:30:11;5.88;;;1.30;;
67130;SDS011;54051;53.464;49.532;2023-04-15T01:32:37;5.95;;;1.50;;
67130;SDS011;54051;53.464;49.532;2023-04-15T01:35:03;4.75;;;1.27;;
67130;SDS011;54051;53.464;49.532;2023-04-15T01:37:30;3.85;;;1.40;;
67130;SDS011;54051;53.464;49.532;2023-04-15T01:39:56;4.63;;;1.50;;
67130;SDS011;54051;53.464;49.532;2023-04-15T01:42:23;4.65;;;1.50;;
67130;SDS011;54051;53.464;49.532;2023-04-15T01:44:49;4.32;;;1.45;;
67130;SDS011;54051;53.464;49.532;2023-04-15T01:47:15;4.78;;;1.33;;
67130;SDS011;54051;53.464;49.532;2023-04-15T01:49:41;3.63;;;1.30;;
67130;SDS011;54051;53.464;49.532;2023-04-15T01:52:07;4.72;;;1.50;;
67130;SDS011;54051;53.464;49.532;2023-04-15T01:54:33;5.35;;;1.40;;
67130;SDS011;54051;53.464;49.532;2023-04-15T01:56:59;4.50;;;1.33;;
67130;SDS011;54051;53.464;49.532;2023-04-15T01:59:26;5.00;;;1.50;;
67130;SDS011;54051;53.464;49.532;2023-04-15T02:01:53;5.40;;;1.30;;
67130;SDS011;54051;53.464;49.532;2023-04-15T02:04:19;3.78;;;1.40;;
67130;SDS011;54051;53.464;49.532;2023-04-15T02:06:45;4.43;;;1.30;;
67130;SDS011;54051;53.464;49.532;2023-04-15T02:09:12;4.60;;;1.40;;
67130;SDS011;54051;53.464;49.532;2023-04-15T02:11:38;6.50;;;1.52;;
67130;SDS011;54051;53.464;49.532;2023-04-15T02:14:04;4.32;;;1.38;;
67130;SDS011;54051;53.464;49.532;2023-04-15T02:16:31;4.32;;;1.50;;
67130;SDS011;54051;53.464;49.532;2023-04-15T02:18:58;5.70;;;1.60;;
67130;SDS011;54051;53.464;49.532;2023-04-15T02:21:25;4.60;;;1.80;;
67130;SDS011;54051;53.464;49.532;2023-04-15T02:23:51;3.97;;;1.23;;
67130;SDS011;54051;53.464;49.532;2023-04-15T02:26:18;5.03;;;1.40;;
67130;SDS011;54051;53.464;49.532;2023-04-15T02:28:45;3.87;;;1.43;;
67130;SDS011;54051;53.464;49.532;2023-04-15T02:31:12;4.90;;;1.20;;
67130;SDS011;54051;53.464;49.532;2023-04-15T02:33:38;4.20;;;1.40;;
67130;SDS011;54051;53.464;49.532;2023-04-15T02:36:04;5.00;;;1.40;;
67130;SDS011;54051;53.464;49.532;2023-04-15T02:38:32;3.90;;;1.40;;
67130;SDS011;54051;53.464;49.532;2023-04-15T02:40:58;5.05;;;1.50;;
67130;SDS011;54051;53.464;49.532;2023-04-15T02:43:24;4.30;;;1.50;;
67130;SDS011;54051;53.464;49.532;2023-04-15T02:45:50;4.40;;;1.58;;
67130;SDS011;54051;53.464;49.532;2023-04-15T02:48:16;4.35;;;1.65;;
67130;SDS011;54051;53.464;49.532;2023-04-15T02:50:45;4.60;;;1.50;;
67130;SDS011;54051;53.464;49.532;2023-04-15T02:53:11;4.20;;;1.55;;
67130;SDS011;54051;53.464;49.532;2023-04-15T02:55:39;5.82;;;1.60;;
67130;SDS011;54051;53.464;49.532;2023-04-15T02:58:05;3.70;;;1.40;;
67130;SDS011;54051;53.464;49.532;2023-04-15T03:00:31;6.03;;;1.50;;
67130;SDS011;54051;53.464;49.532;2023-04-15T03:02:59;4.20;;;1.38;;
67130;SDS011;54051;53.464;49.532;2023-04-15T03:05:27;4.60;;;1.50;;
67130;SDS011;54051;53.464;49.532;2023-04-15T03:07:54;6.13;;;1.50;;
67130;SDS011;54051;53.464;49.532;2023-04-15T03:10:20;3.83;;;1.40;;
67130;SDS011;54051;53.464;49.532;2023-04-15T03:12:46;4.13;;;1.30;;
67130;SDS011;54051;53.464;49.532;2023-04-15T03:15:14;5.50;;;1.50;;
67130;SDS011;54051;53.464;49.532;2023-04-15T03:17:41;4.82;;;1.50;;
67130;SDS011;54051;53.464;49.532;2023-04-15T03:20:07;4.50;;;1.60;;
67130;SDS011;54051;53.464;49.532;2023-04-15T03:22:33;5.30;;;1.63;;
67130;SDS011;54051;53.464;49.532;2023-04-15T03:24:59;4.53;;;1.60;;
67130;SDS011;54051;53.464;49.532;2023-04-15T03:27:26;7.68;;;1.80;;
67130;SDS011;54051;53.464;49.532;2023-04-15T03:29:52;5.10;;;1.73;;
67130;SDS011;54051;53.464;49.532;2023-04-15T03:32:18;6.03;;;2.00;;
67130;SDS011;54051;53.464;49.532;2023-04-15T03:34:44;6.35;;;1.73;;
67130;SDS011;54051;53.464;49.532;2023-04-15T03:37:10;4.63;;;1.67;;
67130;SDS011;54051;53.464;49.532;2023-04-15T03:39:36;4.88;;;1.70;;
67130;SDS011;54051;53.464;49.532;2023-04-15T03:42:02;4.78;;;1.73;;
67130;SDS011;54051;53.464;49.532;2023-04-15T03:44:28;5.07;;;1.75;;
67130;SDS011;54051;53.464;49.532;2023-04-15T03:46:55;4.85;;;1.70;;
67130;SDS011;54051;53.464;49.532;2023-04-15T03:49:21;4.65;;;1.70;;
67130;SDS011;54051;53.464;49.532;2023-04-15T03:51:47;4.80;;;1.80;;
67130;SDS011;54051;53.464;49.532;2023-04-15T03:54:13;6.43;;;1.70;;
67130;SDS011;54051;53.464;49.532;2023-04-15T03:56:40;5.10;;;1.73;;
67130;SDS011;54051;53.464;49.532;2023-04-15T03:59:06;6.18;;;1.73;;
67130;SDS011;54051;53.464;49.532;2023-04-15T04:01:32;9.27;;;2.00;;
67130;SDS011;54051;53.464;49.532;2023-04-15T04:03:58;5.47;;;1.70;;
67130;SDS011;54051;53.464;49.532;2023-04-15T04:06:24;5.18;;;1.80;;
67130;SDS011;54051;53.464;49.532;2023-04-15T04:08:51;5.20;;;1.98;;
67130;SDS011;54051;53.464;49.532;2023-04-15T04:11:17;7.28;;;1.80;;
67130;SDS011;54051;53.464;49.532;2023-04-15T04:13:43;6.13;;;2.00;;
67130;SDS011;54051;53.464;49.532;2023-04-15T04:16:09;6.90;;;2.25;;
67130;SDS011;54051;53.464;49.532;2023-04-15T04:18:35;4.90;;;1.88;;
67130;SDS011;54051;53.464;49.532;2023-04-15T04:21:01;6.88;;;1.92;;
67130;SDS011;54051;53.464;49.532;2023-04-15T04:23:27;5.45;;;1.75;;
67130;SDS011;54051;53.464;49.532;2023-04-15T04:25:53;6.22;;;1.92;;
67130;SDS011;54051;53.464;49.532;2023-04-15T04:28:19;4.90;;;2.00;;
67130;SDS011;54051;53.464;49.532;2023-04-15T04:30:46;4.78;;;1.73;;
67130;SDS011;54051;53.464;49.532;2023-04-15T04:33:12;4.75;;;2.00;;
67130;SDS011;54051;53.464;49.532;2023-04-15T04:35:38;4.57;;;1.88;;
67130;SDS011;54051;53.464;49.532;2023-04-15T04:38:04;5.55;;;1.90;;
67130;SDS011;54051;53.464;49.532;2023-04-15T04:40:30;5.55;;;1.90;;
67130;SDS011;54051;53.464;49.532;2023-04-15T04:42:56;4.57;;;1.80;;
67130;SDS011;54051;53.464;49.532;2023-04-15T04:45:22;6.63;;;1.90;;
67130;SDS011;54051;53.464;49.532;2023-04-15T04:47:48;17.00;;;2.60;;
67130;SDS011;54051;53.464;49.532;2023-04-15T04:50:14;9.40;;;2.17;;
67130;SDS011;54051;53.464;49.532;2023-04-15T04:52:41;7.60;;;2.05;;
67130;SDS011;54051;53.464;49.532;2023-04-15T04:55:07;7.93;;;2.00;;
67130;SDS011;54051;53.464;49.532;2023-04-15T04:57:33;19.80;;;2.72;;
67130;SDS011;54051;53.464;49.532;2023-04-15T05:00:04;7.50;;;2.05;;
67130;SDS011;54051;53.464;49.532;2023-04-15T05:02:32;6.78;;;2.10;;
67130;SDS011;54051;53.464;49.532;2023-04-15T05:04:59;8.90;;;2.10;;
67130;SDS011;54051;53.464;49.532;2023-04-15T05:07:26;6.22;;;1.98;;
67130;SDS011;54051;53.464;49.532;2023-04-15T05:09:52;5.10;;;2.10;;
67130;SDS011;54051;53.464;49.532;2023-04-15T05:12:18;6.90;;;2.20;;
67130;SDS011;54051;53.464;49.532;2023-04-15T05:14:44;6.65;;;2.20;;
67130;SDS011;54051;53.464;49.532;2023-04-15T05:19:37;9.30;;;2.10;;
67130;SDS011;54051;53.464;49.532;2023-04-15T05:22:03;4.32;;;1.92;;
67130;SDS011;54051;53.464;49.532;2023-04-15T05:24:29;5.70;;;2.10;;
67130;SDS011;54051;53.464;49.532;2023-04-15T05:26:55;5.65;;;2.38;;
67130;SDS011;54051;53.464;49.532;2023-04-15T05:29:21;8.33;;;2.53;;
67130;SDS011;54051;53.464;49.532;2023-04-15T05:31:47;4.97;;;2.15;;
67130;SDS011;54051;53.464;49.532;2023-04-15T05:34:14;5.88;;;2.10;;
67130;SDS011;54051;53.464;49.532;2023-04-15T05:36:41;7.18;;;2.97;;
67130;SDS011;54051;53.464;49.532;2023-04-15T05:39:07;10.93;;;2.40;;
67130;SDS011;54051;53.464;49.532;2023-04-15T05:41:34;5.00;;;2.17;;
67130;SDS011;54051;53.464;49.532;2023-04-15T05:44:00;4.22;;;1.92;;
67130;SDS011;54051;53.464;49.532;2023-04-15T05:46:26;7.27;;;2.17;;
67130;SDS011;54051;53.464;49.532;2023-04-15T05:48:52;5.95;;;2.00;;
67130;SDS011;54051;53.464;49.532;2023-04-15T05:51:20;5.25;;;1.80;;
67130;SDS011;54051;53.464;49.532;2023-04-15T05:53:46;5.10;;;1.90;;
67130;SDS011;54051;53.464;49.532;2023-04-15T05:56:12;5.63;;;2.23;;
67130;SDS011;54051;53.464;49.532;2023-04-15T05:58:38;4.67;;;2.07;;
67130;SDS011;54051;53.464;49.532;2023-04-15T06:01:04;6.05;;;2.10;;
67130;SDS011;54051;53.464;49.532;2023-04-15T06:03:31;6.45;;;2.10;;
67130;SDS011;54051;53.464;49.532;2023-04-15T06:08:23;5.28;;;2.10;;
67130;SDS011;54051;53.464;49.532;2023-04-15T06:10:49;4.93;;;2.03;;
67130;SDS011;54051;53.464;49.532;2023-04-15T06:13:15;6.20;;;2.30;;
67130;SDS011;54051;53.464;49.532;2023-04-15T06:15:42;7.30;;;2.25;;
67130;SDS011;54051;53.464;49.532;2023-04-15T06:18:08;4.35;;;2.00;;
67130;SDS011;54051;53.464;49.532;2023-04-15T06:20:34;8.57;;;1.90;;
67130;SDS011;54051;53.464;49.532;2023-04-15T06:23:01;6.68;;;2.08;;
67130;SDS011;54051;53.464;49.532;2023-04-15T06:25:27;6.13;;;2.05;;
67130;SDS011;54051;53.464;49.532;2023-04-15T06:27:53;5.43;;;2.10;;
67130;SDS011;54051;53.464;49.532;2023-04-15T06:30:19;6.88;;;2.05;;
67130;SDS011;54051;53.464;49.532;2023-04-15T06:32:45;5.65;;;2.10;;
67130;SDS011;54051;53.464;49.532;2023-04-15T06:35:11;10.73;;;2.40;;
67130;SDS011;54051;53.464;49.532;2023-04-15T06:37:37;5.57;;;1.80;;
67130;SDS011;54051;53.464;49.532;2023-04-15T06:40:05;5.73;;;2.10;;
67130;SDS011;54051;53.464;49.532;2023-04-15T06:42:33;4.60;;;1.92;;
67130;SDS011;54051;53.464;49.532;2023-04-15T06:45:01;7.80;;;2.10;;
67130;SDS011;54051;53.464;49.532;2023-04-15T06:47:27;7.00;;;2.08;;
67130;SDS011;54051;53.464;49.532;2023-04-15T06:49:53;7.57;;;2.40;;
67130;SDS011;54051;53.464;49.532;2023-04-15T06:52:19;5.67;;;2.40;;
67130;SDS011;54051;53.464;49.532;2023-04-15T06:54:45;7.60;;;2.20;;
67130;SDS011;54051;53.464;49.532;2023-04-15T06:57:11;6.32;;;2.83;;
67130;SDS011;54051;53.464;49.532;2023-04-15T06:59:38;7.40;;;2.10;;
67130;SDS011;54051;53.464;49.532;2023-04-15T07:02:04;5.43;;;1.95;;
67130;SDS011;54051;53.464;49.532;2023-04-15T07:04:32;8.60;;;2.38;;
67130;SDS011;54051;53.464;49.532;2023-04-15T07:06:58;20.73;;;2.37;;
67130;SDS011;54051;53.464;49.532;2023-04-15T07:09:25;4.35;;;1.80;;
67130;SDS011;54051;53.464;49.532;2023-04-15T07:11:51;7.28;;;2.00;;
67130;SDS011;54051;53.464;49.532;2023-04-15T07:14:17;6.47;;;1.93;;
67130;SDS011;54051;53.464;49.532;2023-04-15T07:16:43;6.40;;;2.13;;
67130;SDS011;54051;53.464;49.532;2023-04-15T07:19:09;5.73;;;2.00;;
67130;SDS011;54051;53.464;49.532;2023-04-15T07:21:35;5.50;;;2.03;;
67130;SDS011;54051;53.464;49.532;2023-04-15T07:24:02;4.90;;;2.00;;
67130;SDS011;54051;53.464;49.532;2023-04-15T07:26:28;5.07;;;1.92;;
67130;SDS011;54051;53.464;49.532;2023-04-15T07:28:54;5.35;;;1.88;;
67130;SDS011;54051;53.464;49.532;2023-04-15T07:31:20;7.57;;;2.15;;
67130;SDS011;54051;53.464;49.532;2023-04-15T07:33:46;8.07;;;1.75;;
67130;SDS011;54051;53.464;49.532;2023-04-15T07:36:12;6.53;;;1.80;;
67130;SDS011;54051;53.464;49.532;2023-04-15T07:41:06;6.15;;;1.98;;
67130;SDS011;54051;53.464;49.532;2023-04-15T07:43:32;5.60;;;1.90;;
67130;SDS011;54051;53.464;49.532;2023-04-15T07:45:58;6.43;;;1.70;;
67130;SDS011;54051;53.464;49.532;2023-04-15T07:48:24;5.50;;;2.20;;
67130;SDS011;54051;53.464;49.532;2023-04-15T07:50:50;5.45;;;1.77;;
67130;SDS011;54051;53.464;49.532;2023-04-15T07:53:17;5.82;;;1.92;;
67130;SDS011;54051;53.464;49.532;2023-04-15T07:55:43;5.93;;;2.00;;
67130;SDS011;54051;53.464;49.532;2023-04-15T07:58:09;4.87;;;2.03;;
67130;SDS011;54051;53.464;49.532;2023-04-15T08:00:36;6.60;;;2.00;;
67130;SDS011;54051;53.464;49.532;2023-04-15T08:05:29;6.07;;;1.95;;
67130;SDS011;54051;53.464;49.532;2023-04-15T08:07:55;4.60;;;1.88;;
67130;SDS011;54051;53.464;49.532;2023-04-15T08:10:21;7.38;;;2.10;;
67130;SDS011;54051;53.464;49.532;2023-04-15T08:12:47;5.05;;;1.80;;
67130;SDS011;54051;53.464;49.532;2023-04-15T08:15:14;4.82;;;1.70;;
67130;SDS011;54051;53.464;49.532;2023-04-15T08:17:40;5.35;;;1.50;;
67130;SDS011;54051;53.464;49.532;2023-04-15T08:20:06;8.63;;;1.77;;
67130;SDS011;54051;53.464;49.532;2023-04-15T08:22:32;5.68;;;1.70;;
67130;SDS011;54051;53.464;49.532;2023-04-15T08:24:58;5.80;;;1.90;;
67130;SDS011;54051;53.464;49.532;2023-04-15T08:27:24;5.90;;;1.53;;
67130;SDS011;54051;53.464;49.532;2023-04-15T08:29:50;4.30;;;1.60;;
67130;SDS011;54051;53.464;49.532;2023-04-15T08:32:16;3.63;;;1.60;;
67130;SDS011;54051;53.464;49.532;2023-04-15T08:34:43;7.45;;;1.77;;
67130;SDS011;54051;53.464;49.532;2023-04-15T08:37:09;6.70;;;1.40;;
67130;SDS011;54051;53.464;49.532;2023-04-15T08:39:35;4.57;;;1.50;;
67130;SDS011;54051;53.464;49.532;2023-04-15T08:42:02;4.68;;;1.70;;
67130;SDS011;54051;53.464;49.532;2023-04-15T08:44:34;4.38;;;1.65;;
67130;SDS011;54051;53.464;49.532;2023-04-15T08:47:02;5.70;;;1.50;;
67130;SDS011;54051;53.464;49.532;2023-04-15T08:49:31;7.07;;;1.92;;
67130;SDS011;54051;53.464;49.532;2023-04-15T08:51:58;6.18;;;1.60;;
67130;SDS011;54051;53.464;49.532;2023-04-15T08:54:25;5.40;;;1.80;;
67130;SDS011;54051;53.464;49.532;2023-04-15T08:56:51;8.38;;;1.98;;
67130;SDS011;54051;53.464;49.532;2023-04-15T08:59:18;5.22;;;1.50;;
67130;SDS011;54051;53.464;49.532;2023-04-15T09:01:47;7.68;;;1.70;;
67130;SDS011;54051;53.464;49.532;2023-04-15T09:04:14;6.05;;;1.90;;
67130;SDS011;54051;53.464;49.532;2023-04-15T09:09:07;7.33;;;1.80;;
67130;SDS011;54051;53.464;49.532;2023-04-15T09:11:33;6.43;;;1.37;;
67130;SDS011;54051;53.464;49.532;2023-04-15T09:14:00;4.18;;;1.33;;
67130;SDS011;54051;53.464;49.532;2023-04-15T09:16:26;4.10;;;1.38;;
67130;SDS011;54051;53.464;49.532;2023-04-15T09:18:55;5.07;;;1.20;;
67130;SDS011;54051;53.464;49.532;2023-04-15T09:21:21;6.18;;;1.27;;
67130;SDS011;54051;53.464;49.532;2023-04-15T09:26:32;8.10;;;1.40;;
67130;SDS011;54051;53.464;49.532;2023-04-15T09:29:05;5.45;;;1.48;;
67130;SDS011;54051;53.464;49.532;2023-04-15T09:31:33;11.40;;;1.73;;
67130;SDS011;54051;53.464;49.532;2023-04-15T09:34:01;6.05;;;1.40;;
67130;SDS011;54051;53.464;49.532;2023-04-15T09:36:27;6.53;;;1.55;;
67130;SDS011;54051;53.464;49.532;2023-04-15T09:43:48;7.28;;;1.50;;
67130;SDS011;54051;53.464;49.532;2023-04-15T09:46:14;4.25;;;1.20;;
67130;SDS011;54051;53.464;49.532;2023-04-15T09:48:40;4.25;;;1.40;;
67130;SDS011;54051;53.464;49.532;2023-04-15T09:51:09;4.28;;;1.27;;
67130;SDS011;54051;53.464;49.532;2023-04-15T09:53:35;5.97;;;1.23;;
67130;SDS011;54051;53.464;49.532;2023-04-15T09:56:03;5.20;;;1.13;;
67130;SDS011;54051;53.464;49.532;2023-04-15T09:58:32;5.50;;;1.60;;
67130;SDS011;54051;53.464;49.532;2023-04-15T10:01:01;8.27;;;1.80;;
67130;SDS011;54051;53.464;49.532;2023-04-15T10:03:29;8.65;;;1.55;;
67130;SDS011;54051;53.464;49.532;2023-04-15T10:05:58;4.50;;;1.25;;
67130;SDS011;54051;53.464;49.532;2023-04-15T10:08:32;4.88;;;1.30;;
67130;SDS011;54051;53.464;49.532;2023-04-15T10:11:00;10.90;;;1.60;;
67130;SDS011;54051;53.464;49.532;2023-04-15T10:13:28;7.93;;;1.75;;
67130;SDS011;54051;53.464;49.532;2023-04-15T10:15:59;7.05;;;1.65;;
67130;SDS011;54051;53.464;49.532;2023-04-15T10:18:30;3.55;;;1.17;;
67130;SDS011;54051;53.464;49.532;2023-04-15T10:20:59;5.22;;;1.20;;
67130;SDS011;54051;53.464;49.532;2023-04-15T10:23:26;7.70;;;2.05;;
67130;SDS011;54051;53.464;49.532;2023-04-15T10:25:53;6.53;;;1.27;;
67130;SDS011;54051;53.464;49.532;2023-04-15T10:28:20;4.07;;;1.20;;
67130;SDS011;54051;53.464;49.532;2023-04-15T10:30:49;4.43;;;1.20;;
67130;SDS011;54051;53.464;49.532;2023-04-15T10:33:17;8.82;;;1.50;;
67130;SDS011;54051;53.464;49.532;2023-04-15T10:35:46;6.97;;;1.30;;
67130;SDS011;54051;53.464;49.532;2023-04-15T10:38:36;3.65;;;1.20;;
67130;SDS011;54051;53.464;49.532;2023-04-15T10:43:53;8.05;;;1.20;;
67130;SDS011;54051;53.464;49.532;2023-04-15T10:46:23;15.20;;;1.70;;
67130;SDS011;54051;53.464;49.532;2023-04-15T10:49:12;6.32;;;1.17;;
67130;SDS011;54051;53.464;49.532;2023-04-15T10:56:51;3.92;;;1.30;;
67130;SDS011;54051;53.464;49.532;2023-04-15T10:59:32;7.05;;;1.50;;
67130;SDS011;54051;53.464;49.532;2023-04-15T11:02:02;10.43;;;1.50;;
67130;SDS011;54051;53.464;49.532;2023-04-15T11:07:13;5.60;;;1.40;;
67130;SDS011;54051;53.464;49.532;2023-04-15T11:09:39;5.03;;;1.20;;
67130;SDS011;54051;53.464;49.532;2023-04-15T11:12:08;3.30;;;1.10;;
67130;SDS011;54051;53.464;49.532;2023-04-15T11:14:41;4.35;;;1.30;;
67130;SDS011;54051;53.464;49.532;2023-04-15T11:17:07;6.88;;;1.40;;
67130;SDS011;54051;53.464;49.532;2023-04-15T11:19:37;4.05;;;1.30;;
67130;SDS011;54051;53.464;49.532;2023-04-15T11:22:07;3.97;;;1.20;;
67130;SDS011;54051;53.464;49.532;2023-04-15T11:24:34;5.97;;;1.10;;
67130;SDS011;54051;53.464;49.532;2023-04-15T11:27:01;5.25;;;1.20;;
67130;SDS011;54051;53.464;49.532;2023-04-15T11:29:28;2.90;;;1.02;;
67130;SDS011;54051;53.464;49.532;2023-04-15T11:32:04;4.25;;;1.13;;
67130;SDS011;54051;53.464;49.532;2023-04-15T11:34:33;4.93;;;1.45;;
67130;SDS011;54051;53.464;49.532;2023-04-15T11:37:03;4.10;;;1.10;;
67130;SDS011;54051;53.464;49.532;2023-04-15T11:39:31;4.05;;;1.27;;
67130;SDS011;54051;53.464;49.532;2023-04-15T11:41:57;8.40;;;1.43;;
67130;SDS011;54051;53.464;49.532;2023-04-15T11:44:23;3.72;;;1.40;;
67130;SDS011;54051;53.464;49.532;2023-04-15T11:46:49;4.55;;;1.27;;
67130;SDS011;54051;53.464;49.532;2023-04-15T11:49:30;4.03;;;1.58;;
67130;SDS011;54051;53.464;49.532;2023-04-15T11:51:58;6.68;;;1.70;;
67130;SDS011;54051;53.464;49.532;2023-04-15T11:56:51;5.18;;;1.50;;
67130;SDS011;54051;53.464;49.532;2023-04-15T11:59:19;4.30;;;1.30;;
67130;SDS011;54051;53.464;49.532;2023-04-15T12:01:45;5.60;;;1.30;;
67130;SDS011;54051;53.464;49.532;2023-04-15T12:04:16;4.40;;;1.27;;
67130;SDS011;54051;53.464;49.532;2023-04-15T12:06:44;4.50;;;1.30;;
67130;SDS011;54051;53.464;49.532;2023-04-15T12:09:14;8.65;;;1.83;;
67130;SDS011;54051;53.464;49.532;2023-04-15T12:11:48;5.32;;;1.60;;
67130;SDS011;54051;53.464;49.532;2023-04-15T12:14:28;6.65;;;1.80;;
67130;SDS011;54051;53.464;49.532;2023-04-15T12:16:56;5.88;;;2.00;;
67130;SDS011;54051;53.464;49.532;2023-04-15T12:19:34;4.25;;;1.70;;
67130;SDS011;54051;53.464;49.532;2023-04-15T12:22:05;5.00;;;1.65;;
67130;SDS011;54051;53.464;49.532;2023-04-15T12:24:35;4.78;;;1.73;;
67130;SDS011;54051;53.464;49.532;2023-04-15T12:27:03;7.25;;;1.80;;
67130;SDS011;54051;53.464;49.532;2023-04-15T12:29:31;6.03;;;1.55;;
67130;SDS011;54051;53.464;49.532;2023-04-15T12:32:03;5.30;;;1.63;;
67130;SDS011;54051;53.464;49.532;2023-04-15T12:34:37;5.35;;;1.70;;
67130;SDS011;54051;53.464;49.532;2023-04-15T12:37:06;4.68;;;1.85;;
67130;SDS011;54051;53.464;49.532;2023-04-15T12:39:37;4.50;;;1.77;;
67130;SDS011;54051;53.464;49.532;2023-04-15T12:42:04;4.90;;;1.95;;
67130;SDS011;54051;53.464;49.532;2023-04-15T12:44:31;5.47;;;1.90;;
67130;SDS011;54051;53.464;49.532;2023-04-15T12:46:58;5.13;;;1.80;;
67130;SDS011;54051;53.464;49.532;2023-04-15T12:49:24;4.60;;;1.83;;
67130;SDS011;54051;53.464;49.532;2023-04-15T12:51:51;5.90;;;1.90;;
67130;SDS011;54051;53.464;49.532;2023-04-15T12:54:18;6.97;;;1.80;;
67130;SDS011;54051;53.464;49.532;2023-04-15T12:56:45;4.68;;;1.88;;
67130;SDS011;54051;53.464;49.532;2023-04-15T12:59:13;5.07;;;1.80;;
67130;SDS011;54051;53.464;49.532;2023-04-15T13:01:39;6.10;;;2.10;;
67130;SDS011;54051;53.464;49.532;2023-04-15T13:04:06;4.88;;;1.83;;
67130;SDS011;54051;53.464;49.532;2023-04-15T13:06:32;5.13;;;1.90;;
67130;SDS011;54051;53.464;49.532;2023-04-15T13:08:58;5.15;;;1.80;;
67130;SDS011;54051;53.464;49.532;2023-04-15T13:11:26;5.05;;;1.90;;
67130;SDS011;54051;53.464;49.532;2023-04-15T13:13:55;4.65;;;2.00;;
67130;SDS011;54051;53.464;49.532;2023-04-15T13:16:22;8.27;;;2.10;;
67130;SDS011;54051;53.464;49.532;2023-04-15T13:18:49;5.00;;;1.90;;
67130;SDS011;54051;53.464;49.532;2023-04-15T13:21:15;5.57;;;2.20;;
67130;SDS011;54051;53.464;49.532;2023-04-15T13:23:42;6.07;;;2.15;;
67130;SDS011;54051;53.464;49.532;2023-04-15T13:26:08;4.80;;;1.80;;
67130;SDS011;54051;53.464;49.532;2023-04-15T13:28:34;5.53;;;2.17;;
67130;SDS011;54051;53.464;49.532;2023-04-15T13:33:27;5.45;;;2.00;;
67130;SDS011;54051;53.464;49.532;2023-04-15T13:35:54;4.97;;;1.77;;
67130;SDS011;54051;53.464;49.532;2023-04-15T13:38:20;6.88;;;2.03;;
67130;SDS011;54051;53.464;49.532;2023-04-15T13:40:46;5.75;;;1.90;;
67130;SDS011;54051;53.464;49.532;2023-04-15T13:43:12;5.15;;;1.90;;
67130;SDS011;54051;53.464;49.532;2023-04-15T13:45:38;5.75;;;1.90;;
67130;SDS011;54051;53.464;49.532;2023-04-15T13:48:04;5.20;;;2.00;;
67130;SDS011;54051;53.464;49.532;2023-04-15T13:50:31;5.57;;;2.10;;
67130;SDS011;54051;53.464;49.532;2023-04-15T13:52:57;5.35;;;1.98;;
67130;SDS011;54051;53.464;49.532;2023-04-15T13:55:23;5.15;;;1.73;;
67130;SDS011;54051;53.464;49.532;2023-04-15T13:57:52;6.07;;;1.90;;
67130;SDS011;54051;53.464;49.532;2023-04-15T14:00:19;7.00;;;2.20;;
67130;SDS011;54051;53.464;49.532;2023-04-15T14:02:45;6.45;;;1.83;;
67130;SDS011;54051;53.464;49.532;2023-04-15T14:05:11;5.05;;;2.10;;
67130;SDS011;54051;53.464;49.532;2023-04-15T14:07:37;5.55;;;1.90;;
67130;SDS011;54051;53.464;49.532;2023-04-15T14:10:03;7.43;;;2.20;;
67130;SDS011;54051;53.464;49.532;2023-04-15T14:12:30;6.13;;;2.38;;
67130;SDS011;54051;53.464;49.532;2023-04-15T14:14:56;6.18;;;2.42;;
67130;SDS011;54051;53.464;49.532;2023-04-15T14:17:22;6.05;;;2.53;;
67130;SDS011;54051;53.464;49.532;2023-04-15T14:19:48;5.55;;;2.45;;
67130;SDS011;54051;53.464;49.532;2023-04-15T14:22:14;6.38;;;2.50;;
67130;SDS011;54051;53.464;49.532;2023-04-15T14:24:40;6.38;;;2.63;;
67130;SDS011;54051;53.464;49.532;2023-04-15T14:27:06;6.35;;;2.70;;
67130;SDS011;54051;53.464;49.532;2023-04-15T14:29:33;6.78;;;2.60;;
67130;SDS011;54051;53.464;49.532;2023-04-15T14:31:59;7.93;;;2.80;;
67130;SDS011;54051;53.464;49.532;2023-04-15T14:34:26;5.68;;;2.70;;
67130;SDS011;54051;53.464;49.532;2023-04-15T14:36:52;6.82;;;2.35;;
67130;SDS011;54051;53.464;49.532;2023-04-15T14:39:18;6.68;;;2.70;;
67130;SDS011;54051;53.464;49.532;2023-04-15T14:41:45;7.45;;;2.80;;
67130;SDS011;54051;53.464;49.532;2023-04-15T14:44:11;5.40;;;2.40;;
67130;SDS011;54051;53.464;49.532;2023-04-15T14:46:38;7.03;;;2.60;;
67130;SDS011;54051;53.464;49.532;2023-04-15T14:49:05;6.20;;;2.83;;
67130;SDS011;54051;53.464;49.532;2023-04-15T14:51:32;5.65;;;2.70;;
67130;SDS011;54051;53.464;49.532;2023-04-15T14:53:58;7.13;;;2.70;;
67130;SDS011;54051;53.464;49.532;2023-04-15T14:56:25;6.13;;;2.50;;
67130;SDS011;54051;53.464;49.532;2023-04-15T14:58:51;7.13;;;2.60;;
67130;SDS011;54051;53.464;49.532;2023-04-15T15:01:19;5.93;;;2.33;;
67130;SDS011;54051;53.464;49.532;2023-04-15T15:03:45;6.07;;;2.33;;
67130;SDS011;54051;53.464;49.532;2023-04-15T15:06:12;6.28;;;2.35;;
67130;SDS011;54051;53.464;49.532;2023-04-15T15:08:38;5.93;;;2.30;;